Time;durP1;ratioP1;P1;durP2;ratioP2;P2;SDS_P1;SDS_P2;PMS_P1;PMS_P2;Temp;Humidity;BMP_temperature;BMP_pressure;BME280_temperature;BME280_humidity;BME280_pressure;Samples;Min_cycle;Max_cycle;Signal;HPM_P1;HPM_P2
2021/07/07 00:00:13;;;;;;;14.15;5.25;;;14.20;99.90;;;;;;5034561;28;20029;-78
2021/07/07 00:02:40;;;;;;;15.02;5.10;;;14.20;99.90;;;;;;5034611;28;20032;-78
2021/07/07 00:05:07;;;;;;;15.55;5.15;;;14.20;99.90;;;;;;5034268;28;20505;-75
2021/07/07 00:07:33;;;;;;;13.48;5.03;;;14.30;99.90;;;;;;5034537;28;20040;-76
2021/07/07 00:10:01;;;;;;;18.58;5.40;;;14.20;99.90;;;;;;5034234;28;20022;-76
2021/07/07 00:12:26;;;;;;;14.75;5.25;;;14.20;99.90;;;;;;5032876;28;20022;-77
2021/07/07 00:14:52;;;;;;;19.08;4.80;;;14.10;99.90;;;;;;5034180;28;20087;-77
2021/07/07 00:17:18;;;;;;;15.40;4.57;;;14.00;99.90;;;;;;5034197;28;20036;-78
2021/07/07 00:19:44;;;;;;;;;;;14.10;99.90;;;;;;5034473;28;20029;-77
2021/07/07 00:22:10;;;;;;;13.88;5.25;;;14.10;99.90;;;;;;5032721;28;19905;-77
2021/07/07 00:24:35;;;;;;;14.48;5.28;;;13.90;99.90;;;;;;5033832;28;20021;-77
2021/07/07 00:27:01;;;;;;;18.13;5.72;;;13.90;99.90;;;;;;5033921;28;20029;-77
2021/07/07 00:29:27;;;;;;;19.20;6.22;;;13.80;99.90;;;;;;5034035;28;20103;-78
2021/07/07 00:31:53;;;;;;;21.33;5.97;;;13.70;99.90;;;;;;5034119;28;20029;-77
2021/07/07 00:34:19;;;;;;;16.33;5.55;;;13.70;99.90;;;;;;5033846;28;20394;-77
2021/07/07 00:36:45;;;;;;;;;;;13.70;99.90;;;;;;5034199;28;20112;-77
2021/07/07 00:39:10;;;;;;;13.98;5.72;;;13.80;99.90;;;;;;5033960;28;19983;-77
2021/07/07 00:41:36;;;;;;;17.15;5.93;;;13.70;99.90;;;;;;5033768;28;20021;-77
2021/07/07 00:44:02;;;;;;;14.60;5.55;;;13.70;99.90;;;;;;5033511;28;20021;-76
2021/07/07 00:46:28;;;;;;;19.27;5.50;;;13.70;99.90;;;;;;5033499;28;20025;-76
2021/07/07 00:48:53;;;;;;;22.70;5.97;;;13.70;99.90;;;;;;5033824;28;20064;-77
2021/07/07 00:51:19;;;;;;;20.13;6.38;;;13.60;99.90;;;;;;5033518;28;20381;-77
2021/07/07 00:53:47;;;;;;;13.90;6.15;;;13.60;99.90;;;;;;5033549;28;20030;-78
2021/07/07 00:56:13;;;;;;;18.88;6.00;;;13.60;99.90;;;;;;5033475;28;20086;-77
2021/07/07 00:58:41;;;;;;;17.25;5.43;;;13.50;99.90;;;;;;5033433;28;20029;-77
2021/07/07 01:01:07;;;;;;;20.83;6.22;;;13.50;99.90;;;;;;5033694;28;20032;-77
2021/07/07 01:03:34;;;;;;;12.77;5.18;;;13.40;99.90;;;;;;5033436;28;20040;-76
2021/07/07 01:06:00;;;;;;;17.58;5.57;;;13.30;99.90;;;;;;5033259;28;20033;-77
2021/07/07 01:08:26;;;;;;;19.38;5.30;;;13.30;99.90;;;;;;5033522;28;20029;-77
2021/07/07 01:10:55;;;;;;;11.10;4.32;;;13.30;99.90;;;;;;5033289;28;20021;-77
2021/07/07 01:13:21;;;;;;;11.77;4.25;;;13.30;99.90;;;;;;5033342;28;20083;-76
2021/07/07 01:15:48;;;;;;;16.25;5.38;;;13.30;99.90;;;;;;5032187;28;20025;-77
2021/07/07 01:18:13;;;;;;;15.25;5.07;;;13.30;99.90;;;;;;5031947;28;20405;-77
2021/07/07 01:20:40;;;;;;;15.75;4.32;;;13.30;99.90;;;;;;5033177;28;20101;-76
2021/07/07 01:23:06;;;;;;;13.02;4.20;;;13.40;99.90;;;;;;5033112;28;20060;-78
2021/07/07 01:25:32;;;;;;;;;;;13.40;99.90;;;;;;5033487;28;20026;-77
2021/07/07 01:28:01;;;;;;;12.52;4.40;;;13.40;99.90;;;;;;5033194;28;19916;-75
2021/07/07 01:30:27;;;;;;;12.13;4.50;;;13.30;99.90;;;;;;5033116;28;20021;-77
2021/07/07 01:32:53;;;;;;;12.63;3.92;;;13.20;99.90;;;;;;5033367;28;20022;-77
2021/07/07 01:35:20;;;;;;;11.00;4.00;;;13.10;99.90;;;;;;5033276;28;20033;-78
2021/07/07 01:37:46;;;;;;;17.38;4.30;;;13.30;99.90;;;;;;5032777;28;20045;-79
2021/07/07 01:40:14;;;;;;;10.85;4.25;;;13.10;99.90;;;;;;5033068;28;20101;-76
2021/07/07 01:42:41;;;;;;;20.60;5.18;;;13.10;99.90;;;;;;5033201;28;20053;-77
2021/07/07 01:45:09;;;;;;;12.30;3.70;;;13.00;99.90;;;;;;5032911;28;20068;-77
2021/07/07 01:47:35;;;;;;;14.27;5.05;;;13.00;99.90;;;;;;5031717;28;20389;-79
2021/07/07 01:50:03;;;;;;;13.68;4.18;;;12.80;99.90;;;;;;5033197;28;20049;-76
2021/07/07 01:52:29;;;;;;;13.45;5.05;;;12.80;99.90;;;;;;5032882;28;20045;-78
2021/07/07 01:54:55;;;;;;;14.00;5.05;;;12.80;99.90;;;;;;5034500;28;20053;-76
2021/07/07 01:57:20;;;;;;;12.73;4.30;;;12.60;99.90;;;;;;5035539;28;20029;-77
2021/07/07 01:59:46;;;;;;;12.02;4.30;;;12.70;99.90;;;;;;5036684;28;20397;-77
2021/07/07 02:02:12;;;;;;;15.60;4.20;;;12.60;99.90;;;;;;5036696;28;20524;-79
2021/07/07 02:04:38;;;;;;;12.93;4.72;;;12.60;99.90;;;;;;5036512;28;20029;-78
2021/07/07 02:07:03;;;;;;;12.68;4.32;;;12.60;99.90;;;;;;5035255;28;20025;-77
2021/07/07 02:09:29;;;;;;;14.30;4.72;;;12.40;99.90;;;;;;5036568;28;20014;-77
2021/07/07 02:11:55;;;;;;;13.80;4.28;;;12.40;99.90;;;;;;5036478;28;20037;-76
2021/07/07 02:14:21;;;;;;;12.52;3.85;;;12.40;99.90;;;;;;5036612;28;20494;-77
2021/07/07 02:16:46;;;;;;;14.15;4.50;;;12.40;99.90;;;;;;5036436;28;20033;-78
2021/07/07 02:19:13;;;;;;;9.63;4.40;;;12.30;99.90;;;;;;5036365;28;20105;-77
2021/07/07 02:21:39;;;;;;;12.85;3.90;;;12.40;99.90;;;;;;5036363;28;20017;-77
2021/07/07 02:24:05;;;;;;;12.55;3.75;;;12.50;99.90;;;;;;5034898;28;20366;-75
2021/07/07 02:26:31;;;;;;;13.13;3.97;;;12.50;99.90;;;;;;5036404;28;20143;-76
2021/07/07 02:28:57;;;;;;;12.80;3.50;;;12.50;99.90;;;;;;5036268;28;20032;-78
2021/07/07 02:31:22;;;;;;;10.77;3.50;;;12.50;99.90;;;;;;5036162;28;20577;-77
2021/07/07 02:33:49;;;;;;;10.90;3.80;;;12.40;99.90;;;;;;5036576;28;20025;-77
2021/07/07 02:36:15;;;;;;;12.63;3.78;;;12.50;99.90;;;;;;5036005;28;20030;-77
2021/07/07 02:38:40;;;;;;;14.68;3.42;;;12.80;99.90;;;;;;5035824;28;20049;-77
2021/07/07 02:41:06;;;;;;;13.95;3.38;;;12.70;99.90;;;;;;5036103;28;20029;-77
2021/07/07 02:43:32;;;;;;;12.00;3.70;;;12.80;99.90;;;;;;5035917;28;20030;-78
2021/07/07 02:45:58;;;;;;;10.63;3.50;;;12.70;99.90;;;;;;5035784;28;20061;-77
2021/07/07 02:48:24;;;;;;;13.45;3.88;;;12.60;99.90;;;;;;5036170;28;20041;-77
2021/07/07 02:50:50;;;;;;;9.23;3.42;;;12.60;99.90;;;;;;5036000;28;20021;-79
2021/07/07 02:53:17;;;;;;;12.98;3.58;;;12.60;99.90;;;;;;5035724;28;20394;-76
2021/07/07 02:55:43;;;;;;;16.63;5.03;;;12.50;99.90;;;;;;5035722;28;20128;-78
2021/07/07 02:58:09;;;;;;;;;;;12.30;99.90;;;;;;5036354;28;20124;-77
2021/07/07 03:00:44;;;;;;;9.73;3.53;;;12.30;99.90;;;;;;5035567;28;19999;-77
2021/07/07 03:03:16;;;;;;;12.50;3.90;;;12.40;99.90;;;;;;5035498;28;20029;-77
2021/07/07 03:05:45;;;;;;;10.13;3.38;;;12.50;99.90;;;;;;5034635;28;20025;-76
2021/07/07 03:08:12;;;;;;;13.50;4.10;;;12.40;99.90;;;;;;5035274;28;20104;-78
2021/07/07 03:10:40;;;;;;;13.20;4.47;;;12.20;99.90;;;;;;5035435;28;20112;-76
2021/07/07 03:13:06;;;;;;;11.40;3.80;;;12.30;99.90;;;;;;5035322;28;20104;-79
2021/07/07 03:15:35;;;;;;;10.18;3.47;;;12.40;99.90;;;;;;5035790;28;20061;-77
2021/07/07 03:18:01;;;;;;;11.02;3.58;;;12.30;99.90;;;;;;5035303;28;20014;-77
2021/07/07 03:20:27;;;;;;;11.60;3.75;;;12.30;99.90;;;;;;5035255;28;20547;-76
2021/07/07 03:22:52;;;;;;;11.23;3.78;;;12.40;99.90;;;;;;5033792;28;20075;-77
2021/07/07 03:25:18;;;;;;;12.80;3.53;;;12.40;99.90;;;;;;5035228;28;20025;-75
2021/07/07 03:27:44;;;;;;;12.40;3.88;;;12.40;99.90;;;;;;5035079;28;20386;-77
2021/07/07 03:30:11;;;;;;;11.93;4.22;;;12.30;99.90;;;;;;5035002;28;20451;-78
2021/07/07 03:32:37;;;;;;;20.10;4.47;;;12.40;99.90;;;;;;5034934;28;20018;-76
2021/07/07 03:35:04;;;;;;;13.23;3.80;;;12.40;99.90;;;;;;5034997;28;20052;-77
2021/07/07 03:37:30;;;;;;;15.45;4.13;;;12.30;99.90;;;;;;5035007;28;20456;-76
2021/07/07 03:39:56;;;;;;;;;;;12.20;99.90;;;;;;5035283;28;20049;-78
2021/07/07 03:42:22;;;;;;;14.43;3.97;;;12.40;99.90;;;;;;5034996;28;20047;-76
2021/07/07 03:44:47;;;;;;;12.63;4.20;;;12.60;99.90;;;;;;5034447;28;20056;-77
2021/07/07 03:47:13;;;;;;;13.23;3.90;;;12.60;99.90;;;;;;5033414;28;20030;-78
2021/07/07 03:49:39;;;;;;;15.95;4.43;;;12.40;99.90;;;;;;5034806;28;20448;-78
2021/07/07 03:52:05;;;;;;;14.57;4.43;;;12.20;99.90;;;;;;5034667;28;20444;-76
2021/07/07 03:54:31;;;;;;;;;;;12.00;99.90;;;;;;5034945;28;20052;-77
2021/07/07 03:56:57;;;;;;;15.82;4.88;;;12.00;99.90;;;;;;5034462;28;19911;-77
2021/07/07 03:59:23;;;;;;;16.85;4.57;;;12.00;99.90;;;;;;5034679;28;20030;-76
2021/07/07 04:01:50;;;;;;;20.27;4.35;;;11.90;99.90;;;;;;5034366;28;20033;-77
2021/07/07 04:04:16;;;;;;;13.63;4.15;;;12.10;99.90;;;;;;5034368;28;20081;-76
2021/07/07 04:06:43;;;;;;;10.07;3.65;;;12.30;99.90;;;;;;5034370;28;20501;-77
2021/07/07 04:09:10;;;;;;;10.52;3.33;;;12.30;99.90;;;;;;5034263;28;20021;-77
2021/07/07 04:11:36;;;;;;;17.50;4.75;;;12.40;99.90;;;;;;5034357;28;20025;-76
2021/07/07 04:14:01;;;;;;;13.63;4.68;;;12.30;99.90;;;;;;5034243;28;20040;-77
2021/07/07 04:16:27;;;;;;;15.80;5.40;;;12.20;99.90;;;;;;5032840;28;20037;-75
2021/07/07 04:18:53;;;;;;;12.95;4.40;;;12.00;99.90;;;;;;5033717;28;20026;-78
2021/07/07 04:21:19;;;;;;;12.65;4.32;;;11.90;99.90;;;;;;5034050;28;20034;-78
2021/07/07 04:23:45;;;;;;;13.90;4.30;;;11.90;99.90;;;;;;5033943;28;20025;-76
2021/07/07 04:26:11;;;;;;;9.50;3.88;;;12.00;99.90;;;;;;5032340;28;20036;-77
2021/07/07 04:28:37;;;;;;;;;;;12.20;99.90;;;;;;5034309;28;20096;-77
2021/07/07 04:31:02;;;;;;;11.95;4.18;;;12.20;99.90;;;;;;5033851;28;19952;-76
2021/07/07 04:33:28;;;;;;;17.65;4.82;;;12.00;99.90;;;;;;5033857;28;20032;-77
2021/07/07 04:35:54;;;;;;;11.88;4.13;;;12.00;99.90;;;;;;5033896;28;20030;-78
2021/07/07 04:38:20;;;;;;;13.48;4.75;;;11.80;99.90;;;;;;5033638;28;20061;-77
2021/07/07 04:40:45;;;;;;;15.85;5.05;;;11.90;99.90;;;;;;5034040;28;20029;-77
2021/07/07 04:43:11;;;;;;;12.70;4.30;;;11.90;99.90;;;;;;5034046;28;20030;-77
2021/07/07 04:45:37;;;;;;;13.43;4.35;;;12.00;99.90;;;;;;5033736;28;20033;-77
2021/07/07 04:48:03;;;;;;;14.10;4.72;;;12.20;99.90;;;;;;5033594;28;20421;-77
2021/07/07 04:50:29;;;;;;;16.95;4.88;;;12.10;99.90;;;;;;5033283;28;20026;-75
2021/07/07 04:52:54;;;;;;;20.00;4.70;;;11.90;99.90;;;;;;5033548;28;20101;-77
2021/07/07 04:55:20;;;;;;;19.02;6.05;;;11.80;99.90;;;;;;5033574;28;20130;-76
2021/07/07 04:57:47;;;;;;;17.27;5.47;;;11.70;99.90;;;;;;5033539;28;20482;-76
2021/07/07 05:00:15;;;;;;;13.43;5.10;;;11.60;99.90;;;;;;5033376;28;20026;-77
2021/07/07 05:02:43;;;;;;;13.50;5.05;;;11.60;99.90;;;;;;5032102;28;20040;-77
2021/07/07 05:05:11;;;;;;;14.32;5.15;;;11.70;99.90;;;;;;5033243;28;20048;-77
2021/07/07 05:07:36;;;;;;;14.75;5.60;;;12.00;99.90;;;;;;5033489;28;20025;-77
2021/07/07 05:10:05;;;;;;;18.17;5.47;;;12.10;99.90;;;;;;5033282;28;20025;-77
2021/07/07 05:12:31;;;;;;;12.88;5.10;;;12.10;99.90;;;;;;5033233;28;20022;-78
2021/07/07 05:14:58;;;;;;;;;;;12.20;99.90;;;;;;5032364;28;20375;-75
2021/07/07 05:17:24;;;;;;;16.20;6.22;;;12.10;99.90;;;;;;5032981;28;19912;-77
2021/07/07 05:19:51;;;;;;;14.05;5.38;;;12.10;99.90;;;;;;5033225;28;20026;-77
2021/07/07 05:22:17;;;;;;;21.63;6.65;;;12.20;99.90;;;;;;5031870;28;20116;-78
2021/07/07 05:24:43;;;;;;;20.73;5.35;;;12.20;99.90;;;;;;5031739;28;20514;-77
2021/07/07 05:27:09;;;;;;;13.00;6.10;;;12.50;99.90;;;;;;5033371;28;20080;-76
2021/07/07 05:29:35;;;;;;;13.02;5.90;;;12.50;99.90;;;;;;5034449;28;20385;-77
2021/07/07 05:32:01;;;;;;;14.65;5.40;;;12.60;99.90;;;;;;5037324;28;20036;-78
2021/07/07 05:34:27;;;;;;;14.23;5.30;;;12.70;99.90;;;;;;5037203;28;20030;-75
2021/07/07 05:36:52;;;;;;;11.60;4.97;;;12.90;99.90;;;;;;5036963;28;20022;-76
2021/07/07 05:39:18;;;;;;;21.38;5.95;;;13.10;99.90;;;;;;5035623;28;20025;-78
2021/07/07 05:41:44;;;;;;;15.50;5.10;;;13.10;99.90;;;;;;5037052;28;20021;-78
2021/07/07 05:44:10;;;;;;;13.18;4.57;;;13.20;99.90;;;;;;5036973;28;20032;-78
2021/07/07 05:46:35;;;;;;;11.77;4.20;;;13.20;99.90;;;;;;5035591;28;20036;-78
2021/07/07 05:49:02;;;;;;;14.30;4.07;;;13.40;99.90;;;;;;5036935;28;20022;-76
2021/07/07 05:51:27;;;;;;;;;;;13.70;99.90;;;;;;5037521;28;20124;-77
2021/07/07 05:53:53;;;;;;;13.20;4.28;;;13.80;99.90;;;;;;5036961;28;20361;-76
2021/07/07 05:56:19;;;;;;;;;;;14.00;99.90;;;;;;5037202;28;20101;-77
2021/07/07 05:58:46;;;;;;;17.77;4.47;;;14.00;99.90;;;;;;5036753;28;19988;-78
2021/07/07 06:01:13;;;;;;;13.20;4.32;;;14.10;99.90;;;;;;5036699;28;20026;-77
2021/07/07 06:03:39;;;;;;;13.05;4.00;;;14.20;99.90;;;;;;5036796;28;20022;-77
2021/07/07 06:06:05;;;;;;;15.15;4.43;;;14.40;99.90;;;;;;5036507;28;20497;-78
2021/07/07 06:08:31;;;;;;;14.50;4.63;;;14.40;99.90;;;;;;5036530;28;20018;-77
2021/07/07 06:10:56;;;;;;;16.23;5.25;;;14.30;99.90;;;;;;5036544;28;20026;-78
2021/07/07 06:13:22;;;;;;;13.25;3.70;;;14.40;99.90;;;;;;5036699;28;20025;-77
2021/07/07 06:15:48;;;;;;;;;;;14.60;99.90;;;;;;5036911;28;20374;-78
2021/07/07 06:18:14;;;;;;;14.07;4.50;;;14.60;99.90;;;;;;5036378;28;19905;-79
2021/07/07 06:20:39;;;;;;;19.35;4.10;;;14.60;99.90;;;;;;5036347;28;20030;-77
2021/07/07 06:23:05;;;;;;;;;;;14.80;99.90;;;;;;5036659;28;20060;-76
2021/07/07 06:25:31;;;;;;;17.75;4.35;;;15.10;99.90;;;;;;5036426;28;19909;-76
2021/07/07 06:27:57;;;;;;;20.13;4.10;;;15.00;99.90;;;;;;5036209;28;20021;-77
2021/07/07 06:30:25;;;;;;;11.70;3.65;;;15.10;99.90;;;;;;5036186;28;20512;-77
2021/07/07 06:32:52;;;;;;;13.32;4.15;;;15.50;99.70;;;;;;5036066;28;20021;-78
2021/07/07 06:35:19;;;;;;;11.35;3.33;;;15.80;99.20;;;;;;5034708;28;20033;-78
2021/07/07 06:37:45;;;;;;;18.60;3.72;;;15.90;99.00;;;;;;5035973;28;20448;-77
2021/07/07 06:40:12;;;;;;;12.02;3.33;;;15.70;98.30;;;;;;5034342;28;20116;-77
2021/07/07 06:42:39;;;;;;;12.50;3.58;;;15.70;98.60;;;;;;5035899;28;20022;-76
2021/07/07 06:45:07;;;;;;;12.57;3.20;;;15.80;98.40;;;;;;5035764;28;20033;-77
2021/07/07 06:47:35;;;;;;;14.00;3.20;;;16.00;97.80;;;;;;5035612;28;20164;-77
2021/07/07 06:50:03;;;;;;;11.05;2.90;;;16.00;97.50;;;;;;5035877;28;20020;-79
2021/07/07 06:52:29;;;;;;;15.10;3.55;;;16.10;97.30;;;;;;5035697;28;20386;-77
2021/07/07 06:54:55;;;;;;;13.60;3.17;;;15.90;97.80;;;;;;5035751;28;20030;-76
2021/07/07 06:57:20;;;;;;;;;;;16.00;97.60;;;;;;5036206;28;20106;-80
2021/07/07 06:59:46;;;;;;;14.48;3.25;;;16.00;97.30;;;;;;5035599;28;19912;-79
2021/07/07 07:02:13;;;;;;;;;;;16.10;97.70;;;;;;5036275;28;20437;-76
2021/07/07 07:04:41;;;;;;;16.13;3.15;;;16.10;97.40;;;;;;5035423;28;20277;-78
2021/07/07 07:07:06;;;;;;;11.02;3.20;;;16.20;96.70;;;;;;5036077;28;20019;-77
2021/07/07 07:09:32;;;;;;;;;;;16.10;96.90;;;;;;5035851;28;20092;-79
2021/07/07 07:11:58;;;;;;;13.70;3.20;;;16.00;97.00;;;;;;5034149;28;19909;-79
2021/07/07 07:14:24;;;;;;;;;;;16.20;97.10;;;;;;5034314;28;20026;-77
2021/07/07 07:16:50;;;;;;;11.68;4.50;;;16.20;97.00;;;;;;5035401;28;19947;-77
2021/07/07 07:19:16;;;;;;;;;;;16.40;96.60;;;;;;5035590;28;20058;-78
2021/07/07 07:21:42;;;;;;;12.10;3.10;;;16.90;96.30;;;;;;5033667;28;19910;-78
2021/07/07 07:24:09;;;;;;;12.52;3.15;;;16.80;95.30;;;;;;5035211;28;20037;-78
2021/07/07 07:26:36;;;;;;;13.82;3.05;;;17.10;95.40;;;;;;5033690;28;20049;-78
2021/07/07 07:29:02;;;;;;;12.07;2.95;;;17.00;95.40;;;;;;5034852;28;20022;-78
2021/07/07 07:31:28;;;;;;;12.02;3.25;;;17.00;95.20;;;;;;5034996;28;20017;-77
2021/07/07 07:33:54;;;;;;;12.75;2.90;;;16.70;95.60;;;;;;5034860;28;20430;-79
2021/07/07 07:36:21;;;;;;;;;;;17.10;95.40;;;;;;5035341;28;20026;-78
2021/07/07 07:38:49;;;;;;;10.57;2.67;;;17.30;94.80;;;;;;5034305;28;19923;-79
2021/07/07 07:41:17;;;;;;;14.48;3.03;;;17.30;94.60;;;;;;5034694;28;20025;-77
2021/07/07 07:43:43;;;;;;;10.77;3.22;;;17.30;94.50;;;;;;5033569;28;20026;-79
2021/07/07 07:46:09;;;;;;;13.38;3.10;;;16.80;95.20;;;;;;5034532;28;20025;-77
2021/07/07 07:48:35;;;;;;;12.13;3.38;;;16.70;95.60;;;;;;5034505;28;20490;-78
2021/07/07 07:51:03;;;;;;;;;;;16.70;95.90;;;;;;5034996;28;20112;-77
2021/07/07 07:53:29;;;;;;;11.40;2.88;;;16.80;95.50;;;;;;5033738;28;19905;-77
2021/07/07 07:55:55;;;;;;;15.27;3.42;;;17.20;95.30;;;;;;5034433;28;20029;-77
2021/07/07 07:58:21;;;;;;;10.88;2.85;;;17.40;94.40;;;;;;5034344;28;20025;-77
2021/07/07 08:00:48;;;;;;;10.65;2.95;;;17.60;94.00;;;;;;5034288;28;20517;-77
2021/07/07 08:03:14;;;;;;;8.30;2.40;;;17.60;94.10;;;;;;5034249;28;20084;-77
2021/07/07 08:05:42;;;;;;;10.23;2.78;;;17.50;94.80;;;;;;5034211;28;20075;-77
2021/07/07 08:08:08;;;;;;;13.15;2.90;;;17.60;94.70;;;;;;5034064;28;20037;-78
2021/07/07 08:10:34;;;;;;;11.45;2.97;;;17.70;94.30;;;;;;5034182;28;20044;-79
2021/07/07 08:13:01;;;;;;;10.57;2.63;;;18.10;93.90;;;;;;5034124;28;20100;-78
2021/07/07 08:15:28;;;;;;;10.88;3.17;;;18.30;92.80;;;;;;5034071;28;20028;-78
2021/07/07 08:17:57;;;;;;;15.30;2.63;;;18.10;93.50;;;;;;5034096;28;20037;-80
2021/07/07 08:20:24;;;;;;;9.70;2.70;;;18.50;92.70;;;;;;5033969;28;20029;-80
2021/07/07 08:22:51;;;;;;;13.10;3.10;;;18.60;92.30;;;;;;5032618;28;20036;-77
2021/07/07 08:25:18;;;;;;;11.65;2.80;;;18.40;92.50;;;;;;5033932;28;20030;-78
2021/07/07 08:27:43;;;;;;;12.25;2.88;;;18.30;92.70;;;;;;5033935;28;20033;-77
2021/07/07 08:30:11;;;;;;;10.00;2.53;;;19.30;91.30;;;;;;5032628;28;20021;-77
2021/07/07 08:32:37;;;;;;;10.07;2.63;;;19.50;90.30;;;;;;5033870;28;20449;-78
2021/07/07 08:35:04;;;;;;;10.63;2.53;;;19.30;90.10;;;;;;5033785;28;20060;-78
2021/07/07 08:37:29;;;;;;;13.18;2.60;;;19.60;89.10;;;;;;5033489;28;20052;-78
2021/07/07 08:39:56;;;;;;;10.18;2.50;;;19.60;88.20;;;;;;5033818;28;20030;-78
2021/07/07 08:42:22;;;;;;;10.90;2.35;;;19.20;90.00;;;;;;5032362;28;20040;-77
2021/07/07 08:44:47;;;;;;;10.90;2.40;;;19.00;90.20;;;;;;5033627;28;20025;-77
2021/07/07 08:47:13;;;;;;;12.10;2.50;;;18.70;90.70;;;;;;5033709;28;20057;-79
2021/07/07 08:49:40;;;;;;;10.98;2.47;;;18.50;91.10;;;;;;5033616;28;20426;-80
2021/07/07 08:52:06;;;;;;;9.30;2.50;;;18.80;91.40;;;;;;5033517;28;20068;-77
2021/07/07 08:54:32;;;;;;;10.00;2.78;;;18.80;91.30;;;;;;5033394;28;20367;-78
2021/07/07 08:57:07;;;;;;;13.63;2.70;;;18.70;91.70;;;;;;5033650;28;20123;-78
2021/07/07 08:59:33;;;;;;;12.20;2.72;;;18.70;92.10;;;;;;5031736;28;20040;-79
2021/07/07 09:02:02;;;;;;;10.60;2.55;;;18.80;92.20;;;;;;5033240;28;20032;-79
2021/07/07 09:04:33;;;;;;;11.13;2.47;;;18.90;91.60;;;;;;5033215;28;20036;-78
2021/07/07 09:07:01;;;;;;;10.43;2.55;;;19.10;91.40;;;;;;5033439;28;20032;-80
2021/07/07 09:09:44;;;;;;;10.90;2.97;;;19.50;91.20;;;;;;5033322;28;20013;-79
2021/07/07 09:12:17;;;;;;;12.07;2.88;;;20.30;87.10;;;;;;5033274;28;20478;-80
2021/07/07 09:14:51;;;;;;;9.07;2.70;;;19.90;87.80;;;;;;5033249;28;20104;-78
2021/07/07 09:17:20;;;;;;;7.93;2.40;;;20.00;88.90;;;;;;5033659;28;20025;-79
2021/07/07 09:19:47;;;;;;;8.48;2.30;;;19.80;86.60;;;;;;5033220;28;20385;-78
2021/07/07 09:22:13;;;;;;;9.18;2.33;;;19.60;89.20;;;;;;5032962;28;20026;-77
2021/07/07 09:24:43;;;;;;;8.93;2.17;;;19.70;86.40;;;;;;5033041;28;20521;-78
2021/07/07 09:27:15;;;;;;;8.02;2.45;;;19.70;86.00;;;;;;5033126;28;20013;-77
2021/07/07 09:29:42;;;;;;;10.32;2.15;;;19.50;86.90;;;;;;5033080;28;20029;-78
2021/07/07 09:32:28;;;;;;;9.82;2.50;;;19.30;87.70;;;;;;5033183;28;20025;-78
2021/07/07 09:34:58;;;;;;;10.10;2.55;;;19.00;90.00;;;;;;5031512;28;20033;-78
2021/07/07 09:37:33;;;;;;;8.75;2.83;;;18.80;90.40;;;;;;5032812;28;20056;-78
2021/07/07 09:39:59;;;;;;;9.82;2.42;;;19.20;89.40;;;;;;5031466;28;20029;-79
2021/07/07 09:42:30;;;;;;;9.15;2.50;;;19.60;88.50;;;;;;5032992;28;20385;-80
2021/07/07 09:44:58;;;;;;;6.50;2.13;;;19.80;87.00;;;;;;5032933;28;20034;-76
2021/07/07 09:47:25;;;;;;;16.33;2.67;;;20.30;86.20;;;;;;5033272;28;20036;-78
2021/07/07 09:49:51;;;;;;;11.95;2.30;;;20.70;85.00;;;;;;5031620;28;20104;-78
2021/07/07 09:52:19;;;;;;;13.65;2.70;;;20.40;86.20;;;;;;5032926;28;20049;-79
2021/07/07 09:54:46;;;;;;;8.65;2.67;;;20.40;85.00;;;;;;5032853;28;20052;-79
2021/07/07 09:57:13;;;;;;;7.53;2.30;;;20.70;84.10;;;;;;5032862;28;20029;-78
2021/07/07 09:59:38;;;;;;;6.22;2.10;;;20.60;84.10;;;;;;5032725;28;20026;-79
2021/07/07 10:02:04;;;;;;;7.72;2.17;;;20.70;83.40;;;;;;5032685;28;20071;-77
2021/07/07 10:04:34;;;;;;;7.88;2.03;;;20.50;85.20;;;;;;5032852;28;20032;-77
2021/07/07 10:07:01;;;;;;;13.80;2.70;;;20.70;84.60;;;;;;5031300;28;20033;-78
2021/07/07 10:09:27;;;;;;;9.95;2.33;;;21.00;84.40;;;;;;5032702;28;20029;-80
2021/07/07 10:11:57;;;;;;;7.68;2.13;;;20.40;85.20;;;;;;5032704;28;20067;-79
2021/07/07 10:14:23;;;;;;;8.73;2.22;;;20.30;85.70;;;;;;5032807;28;20098;-79
2021/07/07 10:16:52;;;;;;;10.27;2.42;;;20.30;85.30;;;;;;5035563;28;20044;-78
2021/07/07 10:19:18;;;;;;;8.55;2.53;;;20.50;85.00;;;;;;5036299;28;20026;-79
2021/07/07 10:21:45;;;;;;;13.13;2.42;;;21.30;84.10;;;;;;5036324;28;20109;-78
2021/07/07 10:24:12;;;;;;;8.50;2.10;;;22.00;80.00;;;;;;5036355;28;20099;-78
2021/07/07 10:26:38;;;;;;;7.70;2.22;;;22.00;79.60;;;;;;5036332;28;20030;-76
2021/07/07 10:29:05;;;;;;;7.90;2.20;;;21.40;79.20;;;;;;5036409;28;20026;-81
2021/07/07 10:31:51;;;;;;;9.80;2.35;;;21.00;81.40;;;;;;5036137;28;20112;-80
2021/07/07 10:34:20;;;;;;;6.78;2.20;;;21.20;80.90;;;;;;5036074;28;20036;-77
2021/07/07 10:36:46;;;;;;;6.60;1.92;;;21.40;80.50;;;;;;5036304;28;20056;-79
2021/07/07 10:39:14;;;;;;;8.68;2.20;;;21.70;79.50;;;;;;5036111;28;20033;-80
2021/07/07 10:41:50;;;;;;;10.02;2.42;;;21.50;80.50;;;;;;5034492;28;20383;-77
2021/07/07 10:44:22;;;;;;;8.60;2.38;;;21.90;80.30;;;;;;5036231;28;20029;-79
2021/07/07 10:46:57;;;;;;;11.20;2.20;;;21.50;79.20;;;;;;5034388;28;20083;-79
2021/07/07 10:49:51;;;;;;;7.78;2.17;;;21.20;82.40;;;;;;5035849;28;20030;-79
2021/07/07 10:52:35;;;;;;;9.23;2.47;;;20.70;83.70;;;;;;5036008;28;20013;-75
2021/07/07 10:55:04;;;;;;;6.95;2.03;;;20.30;85.10;;;;;;5035757;28;20025;-79
2021/07/07 10:57:35;;;;;;;8.80;2.40;;;20.10;84.70;;;;;;5034232;28;20026;-78
2021/07/07 11:00:22;;;;;;;8.20;2.17;;;20.40;84.50;;;;;;5035858;28;20029;-79
2021/07/07 11:02:48;;;;;;;8.73;2.38;;;21.00;83.20;;;;;;5035759;28;20041;-77
2021/07/07 11:05:25;;;;;;;6.53;2.22;;;21.10;82.10;;;;;;5035484;28;20026;-77
2021/07/07 11:07:50;;;;;;;8.40;2.20;;;21.20;81.60;;;;;;5035683;28;20018;-78
2021/07/07 11:10:18;;;;;;;8.60;2.33;;;21.30;81.00;;;;;;5035690;28;20017;-79
2021/07/07 11:12:43;;;;;;;12.48;2.70;;;20.80;80.70;;;;;;5035403;28;20052;-79
2021/07/07 11:15:09;;;;;;;7.97;2.58;;;21.00;82.50;;;;;;5035972;28;20029;-77
2021/07/07 11:17:39;;;;;;;7.80;2.50;;;20.90;83.70;;;;;;5035332;28;20064;-78
2021/07/07 11:20:15;;;;;;;8.88;2.47;;;20.70;83.10;;;;;;5035364;28;20086;-78
2021/07/07 11:22:44;;;;;;;7.13;2.10;;;20.70;84.20;;;;;;5035173;28;20457;-79
2021/07/07 11:25:13;;;;;;;12.20;2.53;;;21.40;82.20;;;;;;5033932;28;20428;-77
2021/07/07 11:27:39;;;;;;;7.30;2.00;;;21.90;79.20;;;;;;5034108;28;20044;-79
2021/07/07 11:30:13;;;;;;;9.27;2.40;;;21.80;78.90;;;;;;5035084;28;20397;-79
2021/07/07 11:32:47;;;;;;;11.57;2.47;;;22.40;80.20;;;;;;5035190;28;20021;-79
2021/07/07 11:35:25;;;;;;;10.75;2.20;;;22.60;79.60;;;;;;5035476;28;20506;-77
2021/07/07 11:38:00;;;;;;;11.90;2.30;;;22.70;79.10;;;;;;5034883;28;20046;-79
2021/07/07 11:40:27;;;;;;;7.57;2.00;;;21.80;79.50;;;;;;5033425;28;20400;-78
2021/07/07 11:43:12;;;;;;;9.15;2.00;;;22.00;80.50;;;;;;5033534;28;20116;-78
2021/07/07 11:45:44;;;;;;;7.97;1.90;;;21.80;79.80;;;;;;5034927;28;20056;-78
2021/07/07 11:51:04;;;;;;;9.25;2.00;;;22.10;79.20;;;;;;5034647;28;20036;-79
2021/07/07 11:53:34;;;;;;;5.97;2.05;;;21.30;81.10;;;;;;5034593;28;20017;-77
2021/07/07 11:56:12;;;;;;;9.98;2.00;;;21.10;81.80;;;;;;5034542;28;20029;-79
2021/07/07 11:58:44;;;;;;;6.47;1.90;;;21.70;80.80;;;;;;5033026;28;20400;-78
2021/07/07 12:01:24;;;;;;;8.73;2.20;;;22.10;77.90;;;;;;5033214;28;20409;-79
2021/07/07 12:03:57;;;;;;;7.70;2.38;;;21.70;80.40;;;;;;5034556;28;20021;-79
2021/07/07 12:06:45;;;;;;;8.60;2.30;;;21.30;81.80;;;;;;5034798;28;20030;-78
2021/07/07 12:09:22;;;;;;;8.35;2.20;;;20.80;83.10;;;;;;5034433;28;20022;-78
2021/07/07 12:11:57;;;;;;;7.50;2.30;;;20.70;83.80;;;;;;5034217;28;20036;-78
2021/07/07 12:14:25;;;;;;;10.75;2.20;;;20.90;84.60;;;;;;5034371;28;20022;-77
2021/07/07 12:16:51;;;;;;;7.63;1.80;;;21.10;84.60;;;;;;5032917;28;20077;-77
2021/07/07 12:19:17;;;;;;;10.77;2.10;;;20.90;84.00;;;;;;5034122;28;20048;-78
2021/07/07 12:21:53;;;;;;;6.10;2.00;;;21.40;83.70;;;;;;5034061;28;20470;-77
2021/07/07 12:24:28;;;;;;;8.02;2.30;;;21.80;81.50;;;;;;5032702;28;20025;-79
2021/07/07 12:27:00;;;;;;;11.00;2.38;;;22.30;80.50;;;;;;5033983;28;20513;-78
2021/07/07 12:29:38;;;;;;;7.88;2.25;;;22.20;78.60;;;;;;5032424;28;20028;-78
2021/07/07 12:32:13;;;;;;;9.13;2.40;;;21.70;80.30;;;;;;5033907;28;20482;-77
2021/07/07 12:34:42;;;;;;;9.07;2.30;;;22.10;79.10;;;;;;5033925;28;20025;-77
2021/07/07 12:37:17;;;;;;;7.03;2.13;;;21.70;79.00;;;;;;5032359;28;20037;-78
2021/07/07 12:39:57;;;;;;;5.97;2.05;;;21.00;82.50;;;;;;5033210;28;20113;-77
2021/07/07 12:42:35;;;;;;;12.20;2.25;;;21.00;83.90;;;;;;5034006;28;20026;-79
2021/07/07 12:45:17;;;;;;;10.00;2.05;;;20.90;82.60;;;;;;5033775;28;20030;-77
2021/07/07 12:47:46;;;;;;;9.40;2.72;;;20.70;86.10;;;;;;5033806;28;20024;-78
2021/07/07 12:50:20;;;;;;;9.18;3.05;;;20.20;90.90;;;;;;5032213;28;20025;-78